Time;durP1;ratioP1;P1;durP2;ratioP2;P2;SDS_P1;SDS_P2;PMS_P1;PMS_P2;Temp;Humidity;BMP_temperature;BMP_pressure;BME280_temperature;BME280_humidity;BME280_pressure;Samples;Min_cycle;Max_cycle;Signal;HPM_P1;HPM_P2
2023/11/15 00:00:49;;;;;;;0.00;0.00;;;;;;;9.85;83.48;99563.88;15610085;28;20496;-51
2023/11/15 00:08:28;;;;;;;0.00;0.00;;;;;;;9.64;85.17;99559.91;15602038;28;20042;-53
2023/11/15 00:16:04;;;;;;;0.00;0.00;;;;;;;9.85;83.91;99563.88;15609086;28;20056;-55
2023/11/15 00:23:37;;;;;;;0.00;0.00;;;;;;;9.97;83.71;99562.00;15609257;28;20073;-54
2023/11/15 00:31:12;;;;;;;;;;;;;;;9.56;84.45;99566.47;15609229;28;20488;-56
2023/11/15 00:38:45;;;;;;;0.00;0.00;;;;;;;9.82;84.35;99569.72;15614129;28;19975;-52
2023/11/15 00:46:20;;;;;;;;;;;;;;;9.78;84.27;99571.22;15620259;28;20079;-53
2023/11/15 00:53:56;;;;;;;0.00;0.00;;;;;;;9.34;86.11;99584.94;15617703;28;20307;-52
2023/11/15 01:01:36;;;;;;;0.00;0.00;;;;;;;9.54;85.16;99597.19;15617743;28;20080;-50
2023/11/15 01:09:14;;;;;;;0.00;0.00;;;;;;;9.74;83.87;99603.03;15616833;28;20045;-53
2023/11/15 01:16:50;;;;;;;0.00;0.00;;;;;;;9.56;84.32;99616.50;15617809;28;20045;-57
2023/11/15 01:24:24;;;;;;;0.00;0.00;;;;;;;9.44;84.79;99620.00;15610342;28;20037;-47
2023/11/15 01:32:03;;;;;;;0.00;0.00;;;;;;;9.45;84.72;99632.34;15616601;28;20033;-49
2023/11/15 01:39:37;;;;;;;0.00;0.00;;;;;;;9.47;84.88;99640.16;15616403;28;20037;-48
2023/11/15 01:47:20;;;;;;;0.08;0.08;;;;;;;9.23;85.78;99647.28;15618428;28;20049;-49
2023/11/15 01:54:56;;;;;;;0.00;0.00;;;;;;;9.36;84.97;99651.66;15612761;28;20479;-48
2023/11/15 02:02:32;;;;;;;0.00;0.00;;;;;;;9.41;84.47;99665.16;15615359;28;20076;-48
2023/11/15 02:10:07;;;;;;;0.00;0.00;;;;;;;9.33;84.57;99669.00;15616032;28;20115;-47
2023/11/15 02:17:42;;;;;;;0.00;0.00;;;;;;;9.26;85.36;99672.81;15612842;28;20064;-51
2023/11/15 02:25:19;;;;;;;0.00;0.00;;;;;;;9.33;84.66;99692.31;15614036;28;20365;-51
2023/11/15 02:32:52;;;;;;;0.00;0.00;;;;;;;9.13;85.51;99708.59;15613611;28;20112;-49
2023/11/15 02:40:27;;;;;;;0.00;0.00;;;;;;;9.28;85.32;99706.38;15618118;28;20048;-49
2023/11/15 02:48:00;;;;;;;0.00;0.00;;;;;;;9.03;86.60;99721.72;15625068;28;20080;-50
2023/11/15 02:55:36;;;;;;;0.00;0.00;;;;;;;9.36;84.99;99727.44;15615407;28;20049;-50
2023/11/15 03:03:09;;;;;;;0.00;0.00;;;;;;;9.16;85.02;99749.13;15611052;28;20124;-50
2023/11/15 03:10:44;;;;;;;0.00;0.00;;;;;;;9.27;85.07;99750.22;15613360;28;20077;-50
2023/11/15 03:18:18;;;;;;;0.43;0.15;;;;;;;9.30;84.34;99765.03;15609857;28;20041;-49
2023/11/15 03:26:02;;;;;;;0.00;0.00;;;;;;;9.04;85.84;99771.53;15608513;28;20045;-51
2023/11/15 03:33:37;;;;;;;0.00;0.00;;;;;;;9.19;85.37;99793.41;15608763;28;20088;-49
2023/11/15 03:41:12;;;;;;;0.00;0.00;;;;;;;9.44;84.58;99809.34;15608314;28;20049;-47
2023/11/15 03:48:45;;;;;;;0.00;0.00;;;;;;;9.20;83.80;99825.28;15591869;28;20053;-47
2023/11/15 03:56:21;;;;;;;0.00;0.00;;;;;;;8.99;81.52;99849.81;15608371;28;20048;-49
2023/11/15 04:03:55;;;;;;;0.00;0.00;;;;;;;8.86;79.74;99817.84;15617783;28;20057;-48
2023/11/15 04:11:35;;;;;;;0.00;0.00;;;;;;;8.80;79.19;99881.09;15618155;28;20095;-51
2023/11/15 04:19:10;;;;;;;0.00;0.00;;;;;;;8.88;79.72;99888.03;15620250;28;20041;-49
2023/11/15 04:26:45;;;;;;;0.00;0.00;;;;;;;8.60;78.89;99899.97;15621351;28;20049;-53
2023/11/15 04:34:21;;;;;;;0.00;0.00;;;;;;;8.88;77.07;99906.75;15620850;28;20042;-50
2023/11/15 04:41:55;;;;;;;0.00;0.00;;;;;;;8.56;77.60;99927.38;15622635;28;20119;-51
2023/11/15 04:49:31;;;;;;;0.00;0.00;;;;;;;8.29;78.46;99942.75;15618996;28;20076;-51
2023/11/15 04:57:06;;;;;;;0.00;0.00;;;;;;;8.40;77.75;99968.84;15618469;28;20037;-49
2023/11/15 05:04:40;;;;;;;0.00;0.00;;;;;;;8.45;77.91;99977.03;15618587;28;20140;-54
2023/11/15 05:12:16;;;;;;;0.00;0.00;;;;;;;8.46;78.74;99993.91;15619361;28;20064;-52
2023/11/15 05:19:49;;;;;;;0.00;0.00;;;;;;;8.59;78.07;100008.03;15618112;28;20045;-51
2023/11/15 05:27:24;;;;;;;0.00;0.00;;;;;;;8.24;78.15;100017.44;15612215;28;20064;-51
2023/11/15 05:35:00;;;;;;;4.13;0.35;;;;;;;8.16;77.38;100034.56;15618567;28;20421;-51
2023/11/15 05:42:35;;;;;;;0.00;0.00;;;;;;;7.83;77.15;100061.34;15618203;28;20037;-54
2023/11/15 05:50:11;;;;;;;0.00;0.00;;;;;;;8.02;76.28;100086.38;15617025;28;20042;-52
2023/11/15 05:57:48;;;;;;;0.00;0.00;;;;;;;7.91;75.39;100103.88;15616003;28;20053;-49
2023/11/15 06:05:22;;;;;;;0.00;0.00;;;;;;;7.41;76.50;100116.84;15615731;28;20045;-49
2023/11/15 06:13:00;;;;;;;0.00;0.00;;;;;;;7.48;76.52;100130.22;15622481;28;20458;-53
2023/11/15 06:20:34;;;;;;;0.00;0.00;;;;;;;7.59;76.21;100146.44;15614481;28;20452;-51
2023/11/15 06:28:11;;;;;;;0.00;0.00;;;;;;;7.41;76.24;100162.25;15615732;28;20140;-50
2023/11/15 06:35:45;;;;;;;0.00;0.00;;;;;;;7.36;76.53;100176.19;15615026;28;20476;-50
2023/11/15 06:43:20;;;;;;;0.00;0.00;;;;;;;7.70;76.20;100190.44;15615857;28;20116;-50
2023/11/15 06:50:55;;;;;;;0.00;0.00;;;;;;;7.61;76.68;100199.66;15612925;28;20120;-49
2023/11/15 06:58:35;;;;;;;0.00;0.00;;;;;;;7.46;78.17;100218.56;15613024;28;20045;-49
2023/11/15 07:06:09;;;;;;;0.10;0.10;;;;;;;7.26;79.15;100241.69;15611974;28;20205;-51
2023/11/15 07:13:45;;;;;;;0.00;0.00;;;;;;;7.12;79.94;100259.50;15611454;28;20042;-52
2023/11/15 07:21:21;;;;;;;0.00;0.00;;;;;;;7.45;78.25;100275.63;15612469;28;20384;-51
2023/11/15 07:28:56;;;;;;;0.00;0.00;;;;;;;7.22;78.32;100288.50;15612138;28;20049;-52
2023/11/15 07:36:33;;;;;;;0.10;0.10;;;;;;;7.44;77.04;100306.03;15609880;28;20068;-46
2023/11/15 07:44:08;;;;;;;0.00;0.00;;;;;;;7.74;75.99;100311.03;15612506;28;20065;-46
2023/11/15 07:51:42;;;;;;;0.00;0.00;;;;;;;7.61;76.43;100328.69;15610113;28;20076;-46
2023/11/15 07:59:16;;;;;;;0.00;0.00;;;;;;;7.68;76.32;100350.06;15604951;28;20052;-48
2023/11/15 08:06:50;;;;;;;0.10;0.10;;;;;;;7.57;76.57;100364.00;15611298;28;20053;-47
2023/11/15 08:14:26;;;;;;;0.00;0.00;;;;;;;7.55;76.13;100371.38;15610159;28;20052;-48
2023/11/15 08:21:59;;;;;;;0.00;0.00;;;;;;;7.96;74.88;100384.69;15610495;28;20088;-47
2023/11/15 08:29:33;;;;;;;0.10;0.10;;;;;;;7.63;75.81;100405.94;15609841;28;20061;-48
2023/11/15 08:37:08;;;;;;;0.00;0.00;;;;;;;7.58;75.97;100417.22;15609665;28;20049;-51
2023/11/15 08:44:44;;;;;;;0.00;0.00;;;;;;;8.06;75.05;100430.53;15612026;28;20099;-48
2023/11/15 08:52:19;;;;;;;0.10;0.10;;;;;;;7.87;74.17;100442.00;15608934;28;20041;-46
2023/11/15 08:59:54;;;;;;;0.00;0.00;;;;;;;7.89;74.66;100458.69;15621346;28;20099;-56
2023/11/15 09:07:28;;;;;;;0.00;0.00;;;;;;;7.81;74.78;100466.84;15605825;28;20041;-45
2023/11/15 09:15:11;;;;;;;0.00;0.00;;;;;;;8.41;72.55;100482.09;15619820;28;20052;-52
2023/11/15 09:22:48;;;;;;;0.22;0.22;;;;;;;7.97;72.58;100484.38;15620649;28;20136;-53
2023/11/15 09:30:25;;;;;;;0.00;0.00;;;;;;;8.29;72.68;100502.38;15619757;28;20033;-47
2023/11/15 09:38:01;;;;;;;0.00;0.00;;;;;;;8.85;70.85;100506.66;15616532;28;20080;-49
2023/11/15 09:45:41;;;;;;;0.00;0.00;;;;;;;8.95;70.30;100515.09;15615946;28;20790;-48
2023/11/15 09:53:16;;;;;;;0.00;0.00;;;;;;;8.65;70.45;100515.47;15599376;28;20056;-51
2023/11/15 10:00:52;;;;;;;0.00;0.00;;;;;;;8.85;69.43;100530.75;15613425;28;20118;-50
2023/11/15 10:08:26;;;;;;;0.00;0.00;;;;;;;8.79;69.49;100535.06;15610186;28;20053;-48
2023/11/15 10:16:02;;;;;;;0.00;0.00;;;;;;;10.23;65.40;100526.22;15614104;28;20047;-50
2023/11/15 10:23:36;;;;;;;0.22;0.22;;;;;;;9.84;65.47;100536.06;15615987;28;20453;-52
2023/11/15 10:31:14;;;;;;;0.00;0.00;;;;;;;9.47;68.06;100550.13;15616238;28;20081;-52
2023/11/15 10:38:51;;;;;;;0.00;0.00;;;;;;;10.32;65.52;100548.28;15615678;28;20053;-50
2023/11/15 10:46:29;;;;;;;0.40;0.28;;;;;;;10.29;64.47;100562.94;15617157;28;20479;-48
2023/11/15 10:54:06;;;;;;;0.00;0.00;;;;;;;9.43;67.38;100574.66;15614130;28;20050;-48
2023/11/15 11:01:42;;;;;;;0.15;0.15;;;;;;;9.42;66.80;100586.41;15614278;28;20046;-51
2023/11/15 11:09:21;;;;;;;0.00;0.00;;;;;;;9.57;66.51;100591.56;15612317;28;20033;-51
2023/11/15 11:16:57;;;;;;;0.00;0.00;;;;;;;9.11;67.13;100604.94;15612439;28;20499;-57
2023/11/15 11:24:31;;;;;;;0.00;0.00;;;;;;;8.98;67.87;100618.28;15603655;28;20050;-49
2023/11/15 11:32:20;;;;;;;0.00;0.00;;;;;;;9.71;66.11;100619.97;15612384;28;20522;-49
2023/11/15 11:39:53;;;;;;;0.00;0.00;;;;;;;10.36;64.44;100635.38;15611982;28;20084;-50
2023/11/15 11:47:28;;;;;;;0.00;0.00;;;;;;;10.10;63.77;100639.72;15605120;28;20090;-47
2023/11/15 11:55:05;;;;;;;0.00;0.00;;;;;;;10.11;63.54;100640.53;15610846;28;20071;-45
2023/11/15 12:02:41;;;;;;;0.00;0.00;;;;;;;10.75;61.23;100634.38;15612466;28;20096;-48
2023/11/15 12:10:16;;;;;;;0.00;0.00;;;;;;;11.78;56.96;100628.69;15609402;28;20104;-48
2023/11/15 12:17:53;;;;;;;0.00;0.00;;;;;;;13.72;52.66;100602.59;15607292;28;20092;-54
2023/11/15 12:25:27;;;;;;;0.00;0.00;;;;;;;13.85;50.63;100646.56;15611026;28;20037;-50
2023/11/15 12:33:11;;;;;;;0.00;0.00;;;;;;;13.64;50.66;100658.75;15619654;28;20088;-51
2023/11/15 12:40:45;;;;;;;0.00;0.00;;;;;;;12.25;54.46;100667.59;15622013;28;20042;-47
2023/11/15 12:48:21;;;;;;;0.00;0.00;;;;;;;10.70;59.93;100686.03;15623985;28;20041;-50
2023/11/15 12:55:54;;;;;;;0.20;0.10;;;;;;;10.28;61.01;100668.59;15621273;28;20092;-51
2023/11/15 13:03:32;;;;;;;0.00;0.00;;;;;;;9.72;62.43;100693.19;15613876;28;20132;-51
2023/11/15 13:11:10;;;;;;;0.03;0.03;;;;;;;9.93;62.28;100692.97;15616848;28;20042;-48
2023/11/15 13:18:47;;;;;;;0.00;0.00;;;;;;;11.16;58.66;100702.97;15618724;28;20112;-54
2023/11/15 13:26:21;;;;;;;0.00;0.00;;;;;;;10.36;60.39;100710.50;15601136;28;20057;-50
2023/11/15 13:33:57;;;;;;;0.00;0.00;;;;;;;10.32;61.30;100711.94;15614408;28;20175;-51
2023/11/15 13:41:30;;;;;;;0.00;0.00;;;;;;;11.33;58.88;100703.28;15611615;28;20408;-53
2023/11/15 13:49:05;;;;;;;0.00;0.00;;;;;;;11.68;57.96;100717.94;15619102;28;20072;-49
2023/11/15 13:56:40;;;;;;;0.00;0.00;;;;;;;11.18;60.27;100722.38;15617519;28;20721;-50
2023/11/15 14:04:14;;;;;;;0.00;0.00;;;;;;;11.16;60.37;100736.03;15618012;28;20053;-51
2023/11/15 14:11:49;;;;;;;0.10;0.10;;;;;;;10.89;60.50;100740.69;15615039;28;20069;-50
2023/11/15 14:19:24;;;;;;;0.35;0.13;;;;;;;10.70;61.00;100755.00;15617672;28;20053;-54
2023/11/15 14:27:00;;;;;;;0.00;0.00;;;;;;;9.86;62.98;100767.22;15616499;28;20076;-55
2023/11/15 14:34:36;;;;;;;0.00;0.00;;;;;;;10.18;61.82;100762.88;15616192;28;20694;-54
2023/11/15 14:42:13;;;;;;;0.00;0.00;;;;;;;10.27;61.22;100771.59;15618052;28;20634;-52
2023/11/15 14:49:48;;;;;;;0.00;0.00;;;;;;;10.39;61.48;100777.13;15614845;28;20053;-53
2023/11/15 14:57:23;;;;;;;0.05;0.05;;;;;;;10.13;62.22;100780.63;15611468;28;20048;-52
2023/11/15 15:05:01;;;;;;;0.00;0.00;;;;;;;10.21;61.15;100797.34;15596325;28;20140;-56
2023/11/15 15:12:36;;;;;;;0.10;0.10;;;;;;;9.77;62.34;100807.81;15594904;28;20049;-55
2023/11/15 15:20:14;;;;;;;0.00;0.00;;;;;;;9.99;61.86;100811.97;15612547;28;20056;-51
2023/11/15 15:27:49;;;;;;;0.00;0.00;;;;;;;9.86;61.74;100831.56;15614607;28;20042;-51
2023/11/15 15:35:24;;;;;;;0.30;0.30;;;;;;;9.75;62.95;100839.38;15612012;28;20049;-54
2023/11/15 15:43:00;;;;;;;0.00;0.00;;;;;;;9.63;62.52;100860.56;15613625;28;20107;-53
2023/11/15 15:50:36;;;;;;;0.00;0.00;;;;;;;9.10;64.63;100869.19;15612368;28;20687;-51
2023/11/15 15:58:10;;;;;;;0.00;0.00;;;;;;;9.01;65.15;100869.53;15610234;28;20056;-50
2023/11/15 16:05:46;;;;;;;0.00;0.00;;;;;;;8.86;65.05;100877.66;15617508;28;20045;-51
2023/11/15 16:13:20;;;;;;;0.00;0.00;;;;;;;8.69;65.46;100880.66;15619576;28;20068;-52
2023/11/15 16:20:56;;;;;;;0.10;0.10;;;;;;;8.53;65.89;100890.78;15623615;28;20075;-54
2023/11/15 16:28:31;;;;;;;4.32;0.55;;;;;;;8.37;66.52;100892.72;15615295;28;20053;-52
2023/11/15 16:36:09;;;;;;;0.17;0.17;;;;;;;8.00;67.76;100903.63;15622480;28;20046;-53
2023/11/15 16:43:43;;;;;;;0.20;0.20;;;;;;;7.67;68.05;100917.44;15625340;28;20061;-54
2023/11/15 16:51:19;;;;;;;0.00;0.00;;;;;;;7.71;68.35;100925.91;15620098;28;20064;-53
2023/11/15 16:58:53;;;;;;;0.75;0.75;;;;;;;7.50;68.34;100929.34;15621311;28;20057;-55
2023/11/15 17:06:28;;;;;;;1.25;0.65;;;;;;;7.33;69.11;100939.41;15615114;28;20046;-54
2023/11/15 17:14:03;;;;;;;0.10;0.10;;;;;;;7.01;70.27;100952.06;15603710;28;20049;-52
2023/11/15 17:21:40;;;;;;;0.28;0.28;;;;;;;7.09;69.52;100949.31;15621130;28;20497;-52
2023/11/15 17:29:16;;;;;;;0.28;0.28;;;;;;;6.82;70.53;100966.75;15620751;28;20045;-50
2023/11/15 17:36:58;;;;;;;0.47;0.47;;;;;;;6.87;70.62;100966.22;15619834;28;20040;-50
2023/11/15 17:44:32;;;;;;;0.00;0.00;;;;;;;6.82;70.83;100964.09;15618460;28;20052;-55
2023/11/15 17:52:09;;;;;;;0.47;0.47;;;;;;;6.72;71.68;100968.00;15618278;28;20060;-52
2023/11/15 17:59:43;;;;;;;0.00;0.00;;;;;;;6.79;71.44;100967.09;15618452;28;20519;-49
2023/11/15 18:07:20;;;;;;;0.10;0.10;;;;;;;6.93;70.98;100972.66;15619858;28;20045;-51
2023/11/15 18:14:55;;;;;;;0.17;0.10;;;;;;;7.14;71.19;100962.94;15614300;28;20132;-54
2023/11/15 18:22:33;;;;;;;0.00;0.00;;;;;;;7.47;69.94;100967.94;15616397;28;20475;-53
2023/11/15 18:30:12;;;;;;;0.57;0.55;;;;;;;7.43;68.85;100968.50;15614947;28;20069;-54
2023/11/15 18:37:47;;;;;;;0.00;0.00;;;;;;;7.23;69.80;100945.00;15614971;28;20065;-53
2023/11/15 18:45:22;;;;;;;0.10;0.10;;;;;;;7.20;70.12;100969.41;15616433;28;20436;-55
2023/11/15 18:53:03;;;;;;;2.75;1.27;;;;;;;7.51;69.32;100968.41;15615188;28;20041;-52
2023/11/15 19:00:36;;;;;;;0.10;0.10;;;;;;;7.30;71.62;100961.94;15614480;28;20045;-55
2023/11/15 19:08:15;;;;;;;0.00;0.00;;;;;;;7.33;70.72;100969.59;15613912;28;20053;-55
2023/11/15 19:15:49;;;;;;;0.63;0.22;;;;;;;7.28;71.66;100976.50;15610087;28;20095;-53
2023/11/15 19:23:24;;;;;;;0.05;0.05;;;;;;;7.27;72.34;100972.16;15612832;28;20049;-54
2023/11/15 19:31:00;;;;;;;0.00;0.00;;;;;;;7.10;74.22;100987.50;15669195;23;20037;-54
2023/11/15 19:38:36;;;;;;;0.57;0.57;;;;;;;7.34;74.30;100973.09;15620587;28;20409;-49
2023/11/15 19:46:19;;;;;;;0.10;0.10;;;;;;;6.57;79.03;100978.59;15596853;28;20143;-47
2023/11/15 19:53:55;;;;;;;0.13;0.05;;;;;;;7.40;75.34;100975.03;15605154;28;20041;-53
2023/11/15 20:01:28;;;;;;;0.25;0.25;;;;;;;7.76;73.86;100974.28;15605543;28;20510;-51
2023/11/15 20:09:03;;;;;;;0.20;0.20;;;;;;;7.53;75.06;100961.03;15603036;28;20038;-48
2023/11/15 20:16:37;;;;;;;0.20;0.20;;;;;;;7.28;76.01;100968.50;15604833;28;20147;-51
2023/11/15 20:24:12;;;;;;;0.00;0.00;;;;;;;7.29;76.36;100962.97;15605496;28;20472;-53
2023/11/15 20:31:46;;;;;;;0.00;0.00;;;;;;;7.29;77.52;100980.81;15607302;28;20057;-57
2023/11/15 20:39:21;;;;;;;0.00;0.00;;;;;;;7.51;77.35;100979.91;15604970;28;20053;-53
2023/11/15 20:46:55;;;;;;;0.45;0.45;;;;;;;7.33;77.28;100972.25;15604091;28;20050;-49
2023/11/15 20:54:29;;;;;;;0.00;0.00;;;;;;;6.98;79.83;100972.94;15611095;28;20129;-51
2023/11/15 21:02:03;;;;;;;0.00;0.00;;;;;;;7.26;78.57;100967.81;15581282;28;20477;-50
2023/11/15 21:09:39;;;;;;;0.00;0.00;;;;;;;7.32;78.73;100959.06;15605686;28;20064;-52
2023/11/15 21:17:15;;;;;;;0.10;0.10;;;;;;;6.87;80.75;100959.03;15607307;28;20178;-53
2023/11/15 21:24:53;;;;;;;0.10;0.10;;;;;;;6.86;81.71;100953.88;15610738;28;20068;-48
2023/11/15 21:32:28;;;;;;;0.00;0.00;;;;;;;7.12;81.20;100935.59;15603732;28;20072;-50
2023/11/15 21:40:09;;;;;;;0.00;0.00;;;;;;;7.00;82.13;100945.06;15608856;28;20056;-50
2023/11/15 21:47:44;;;;;;;0.00;0.00;;;;;;;7.49;81.45;100951.72;15605015;28;20376;-52
2023/11/15 21:55:20;;;;;;;0.20;0.17;;;;;;;7.68;80.92;100943.97;15609780;28;20508;-48
2023/11/15 22:02:53;;;;;;;0.15;0.10;;;;;;;7.64;80.55;100940.00;15608515;28;20559;-48
2023/11/15 22:10:29;;;;;;;0.17;0.05;;;;;;;7.67;80.46;100944.16;15607483;28;20042;-53
2023/11/15 22:18:03;;;;;;;0.63;0.55;;;;;;;8.21;78.40;100937.56;15607805;28;20183;-51
2023/11/15 22:25:41;;;;;;;0.00;0.00;;;;;;;8.08;78.56;100930.25;15604438;28;20132;-48
2023/11/15 22:33:14;;;;;;;0.35;0.32;;;;;;;8.15;78.94;100931.97;15608558;28;20115;-49
2023/11/15 22:40:49;;;;;;;0.00;0.00;;;;;;;8.06;78.70;100927.75;15606685;28;20079;-46
2023/11/15 22:48:23;;;;;;;0.35;0.35;;;;;;;7.85;80.20;100923.22;15603146;28;20051;-49
2023/11/15 22:55:58;;;;;;;;;;;;;;;7.97;79.46;100920.88;15602036;28;20033;-50
2023/11/15 23:03:31;;;;;;;2.92;1.33;;;;;;;7.56;80.33;100913.41;15603808;28;19925;-47
2023/11/15 23:11:09;;;;;;;0.00;0.00;;;;;;;7.88;79.45;100905.97;15605259;28;20115;-52
2023/11/15 23:18:43;;;;;;;0.10;0.10;;;;;;;7.49;79.88;100900.97;15604721;28;20508;-50
2023/11/15 23:26:19;;;;;;;0.00;0.00;;;;;;;7.69;78.86;100902.03;15603499;28;20037;-52
2023/11/15 23:33:53;;;;;;;1.10;0.47;;;;;;;7.40;80.62;100900.25;15604767;28;20045;-49
2023/11/15 23:41:32;;;;;;;0.82;0.57;;;;;;;7.44;79.78;100893.53;15604191;28;20073;-46
2023/11/15 23:49:05;;;;;;;0.10;0.10;;;;;;;7.23;80.08;100901.44;15603854;28;20537;-51
2023/11/15 23:56:43;;;;;;;0.15;0.15;;;;;;;7.29;80.50;100901.53;15604256;28;20050;-52
